sensor_id;sensor_type;location;lat;lon;timestamp;pressure;altitude;pressure_sealevel;temperature;humidity
39729;BME280;25402;42.004;23.088;2022-08-03T00:01:51;97364.41;;;17.51;39.66
39729;BME280;25402;42.004;23.088;2022-08-03T00:04:17;97369.28;;;17.49;39.70
39729;BME280;25402;42.004;23.088;2022-08-03T00:06:43;97361.56;;;17.46;39.82
39729;BME280;25402;42.004;23.088;2022-08-03T00:09:10;97347.25;;;17.32;39.92
39729;BME280;25402;42.004;23.088;2022-08-03T00:11:36;97358.22;;;17.44;39.96
39729;BME280;25402;42.004;23.088;2022-08-03T00:14:03;97361.66;;;17.40;40.13
39729;BME280;25402;42.004;23.088;2022-08-03T00:16:30;97354.16;;;17.35;40.31
39729;BME280;25402;42.004;23.088;2022-08-03T00:18:57;97353.22;;;17.29;40.40
39729;BME280;25402;42.004;23.088;2022-08-03T00:21:23;97340.81;;;17.15;40.37
39729;BME280;25402;42.004;23.088;2022-08-03T00:23:50;97360.06;;;17.20;40.19
39729;BME280;25402;42.004;23.088;2022-08-03T00:26:16;97349.47;;;17.12;40.82
39729;BME280;25402;42.004;23.088;2022-08-03T00:28:42;97359.00;;;17.03;40.74
39729;BME280;25402;42.004;23.088;2022-08-03T00:31:09;97358.41;;;17.01;40.90
39729;BME280;25402;42.004;23.088;2022-08-03T00:33:35;97363.16;;;16.94;41.17
39729;BME280;25402;42.004;23.088;2022-08-03T00:36:02;97364.06;;;16.88;41.05
39729;BME280;25402;42.004;23.088;2022-08-03T00:38:29;97370.47;;;16.82;41.43
39729;BME280;25402;42.004;23.088;2022-08-03T00:40:55;97345.47;;;16.66;41.02
39729;BME280;25402;42.004;23.088;2022-08-03T00:43:24;97349.25;;;16.65;41.21
39729;BME280;25402;42.004;23.088;2022-08-03T00:45:51;97369.47;;;16.76;41.13
39729;BME280;25402;42.004;23.088;2022-08-03T00:48:19;97361.75;;;16.73;41.33
39729;BME280;25402;42.004;23.088;2022-08-03T00:50:46;97365.06;;;16.75;41.36
39729;BME280;25402;42.004;23.088;2022-08-03T00:53:14;97371.44;;;16.69;41.58
39729;BME280;25402;42.004;23.088;2022-08-03T00:55:41;97380.25;;;16.71;41.66
39729;BME280;25402;42.004;23.088;2022-08-03T00:58:08;97382.38;;;16.69;41.54
39729;BME280;25402;42.004;23.088;2022-08-03T01:00:39;97379.91;;;16.67;41.21
39729;BME280;25402;42.004;23.088;2022-08-03T01:03:06;97382.03;;;16.65;41.54
39729;BME280;25402;42.004;23.088;2022-08-03T01:05:39;97382.38;;;16.69;41.55
39729;BME280;25402;42.004;23.088;2022-08-03T01:08:18;97389.16;;;16.66;41.59
39729;BME280;25402;42.004;23.088;2022-08-03T01:10:51;97378.75;;;16.57;41.80
39729;BME280;25402;42.004;23.088;2022-08-03T01:13:23;97352.13;;;16.34;41.64
39729;BME280;25402;42.004;23.088;2022-08-03T01:15:57;97385.72;;;16.53;41.79
39729;BME280;25402;42.004;23.088;2022-08-03T01:18:29;97368.94;;;16.31;42.42
39729;BME280;25402;42.004;23.088;2022-08-03T01:20:57;97390.66;;;16.44;42.67
39729;BME280;25402;42.004;23.088;2022-08-03T01:26:41;97399.28;;;16.41;42.82
39729;BME280;25402;42.004;23.088;2022-08-03T01:32:06;97393.28;;;16.32;42.62
39729;BME280;25402;42.004;23.088;2022-08-03T01:34:39;97384.66;;;16.36;43.07
39729;BME280;25402;42.004;23.088;2022-08-03T01:37:08;97394.75;;;16.35;43.22
39729;BME280;25402;42.004;23.088;2022-08-03T01:39:36;97388.66;;;16.33;43.28
39729;BME280;25402;42.004;23.088;2022-08-03T01:42:06;97392.06;;;16.28;42.94
39729;BME280;25402;42.004;23.088;2022-08-03T01:44:36;97375.84;;;16.15;43.43
39729;BME280;25402;42.004;23.088;2022-08-03T01:47:04;97374.84;;;16.10;43.24
39729;BME280;25402;42.004;23.088;2022-08-03T01:49:36;97386.97;;;16.14;43.23
39729;BME280;25402;42.004;23.088;2022-08-03T01:52:04;97377.94;;;16.13;43.21
39729;BME280;25402;42.004;23.088;2022-08-03T01:54:34;97386.97;;;16.14;43.04
39729;BME280;25402;42.004;23.088;2022-08-03T01:57:02;97383.84;;;16.10;43.43
39729;BME280;25402;42.004;23.088;2022-08-03T01:59:29;97383.25;;;16.08;43.53
39729;BME280;25402;42.004;23.088;2022-08-03T02:01:59;97379.75;;;16.01;43.39
39729;BME280;25402;42.004;23.088;2022-08-03T02:04:27;97376.81;;;16.03;43.02
39729;BME280;25402;42.004;23.088;2022-08-03T02:06:54;97380.44;;;15.96;42.98
39729;BME280;25402;42.004;23.088;2022-08-03T02:09:22;97381.94;;;15.92;43.02
39729;BME280;25402;42.004;23.088;2022-08-03T02:11:50;97394.06;;;15.96;43.07
39729;BME280;25402;42.004;23.088;2022-08-03T02:14:19;97390.34;;;15.91;43.18
39729;BME280;25402;42.004;23.088;2022-08-03T02:16:48;97384.13;;;15.84;43.46
39729;BME280;25402;42.004;23.088;2022-08-03T02:19:16;97385.22;;;15.76;43.38
39729;BME280;25402;42.004;23.088;2022-08-03T02:21:45;97393.41;;;15.76;43.58
39729;BME280;25402;42.004;23.088;2022-08-03T02:24:12;97386.72;;;15.72;43.80
39729;BME280;25402;42.004;23.088;2022-08-03T02:26:39;97388.81;;;15.70;44.00
39729;BME280;25402;42.004;23.088;2022-08-03T02:29:11;97385.47;;;15.68;43.83
39729;BME280;25402;42.004;23.088;2022-08-03T02:31:39;97391.19;;;15.60;44.05
39729;BME280;25402;42.004;23.088;2022-08-03T02:34:12;97383.00;;;15.60;44.12
39729;BME280;25402;42.004;23.088;2022-08-03T02:36:41;97390.22;;;15.54;44.25
39729;BME280;25402;42.004;23.088;2022-08-03T02:39:13;97395.66;;;15.54;43.94
39729;BME280;25402;42.004;23.088;2022-08-03T02:41:44;97396.50;;;15.55;44.02
39729;BME280;25402;42.004;23.088;2022-08-03T02:44:12;97392.31;;;15.52;44.01
39729;BME280;25402;42.004;23.088;2022-08-03T02:46:42;97390.66;;;15.51;44.60
39729;BME280;25402;42.004;23.088;2022-08-03T02:49:11;97392.53;;;15.51;44.85
39729;BME280;25402;42.004;23.088;2022-08-03T02:51:38;97374.81;;;15.42;44.55
39729;BME280;25402;42.004;23.088;2022-08-03T02:54:07;97395.69;;;15.48;44.63
39729;BME280;25402;42.004;23.088;2022-08-03T02:56:36;97397.38;;;15.49;44.50
39729;BME280;25402;42.004;23.088;2022-08-03T02:59:04;97365.63;;;15.29;45.05
39729;BME280;25402;42.004;23.088;2022-08-03T03:01:32;97404.16;;;15.40;45.03
39729;BME280;25402;42.004;23.088;2022-08-03T03:03:59;97398.72;;;15.40;45.12
39729;BME280;25402;42.004;23.088;2022-08-03T03:06:27;97404.78;;;15.42;44.86
39729;BME280;25402;42.004;23.088;2022-08-03T03:08:55;97407.50;;;15.42;45.04
39729;BME280;25402;42.004;23.088;2022-08-03T03:11:22;97400.38;;;15.41;44.99
39729;BME280;25402;42.004;23.088;2022-08-03T03:13:50;97409.16;;;15.43;44.89
39729;BME280;25402;42.004;23.088;2022-08-03T03:16:17;97396.25;;;15.32;44.87
39729;BME280;25402;42.004;23.088;2022-08-03T03:18:45;97392.06;;;15.29;44.78
39729;BME280;25402;42.004;23.088;2022-08-03T03:21:14;97413.94;;;15.47;43.44
39729;BME280;25402;42.004;23.088;2022-08-03T03:23:41;97415.03;;;15.71;42.71
39729;BME280;25402;42.004;23.088;2022-08-03T03:26:08;97420.38;;;16.09;42.03
39729;BME280;25402;42.004;23.088;2022-08-03T03:28:35;97417.63;;;16.34;41.83
39729;BME280;25402;42.004;23.088;2022-08-03T03:31:04;97418.88;;;16.56;41.80
39729;BME280;25402;42.004;23.088;2022-08-03T03:33:32;97424.72;;;16.78;41.78
39729;BME280;25402;42.004;23.088;2022-08-03T03:35:59;97397.47;;;16.72;41.36
39729;BME280;25402;42.004;23.088;2022-08-03T03:38:26;97426.16;;;16.99;41.16
39729;BME280;25402;42.004;23.088;2022-08-03T03:40:53;97426.50;;;17.02;40.32
39729;BME280;25402;42.004;23.088;2022-08-03T03:43:22;97427.34;;;17.03;40.28
39729;BME280;25402;42.004;23.088;2022-08-03T03:45:49;97422.84;;;17.09;39.63
39729;BME280;25402;42.004;23.088;2022-08-03T03:48:17;97421.16;;;17.14;39.59
39729;BME280;25402;42.004;23.088;2022-08-03T03:50:44;97440.19;;;17.32;39.21
39729;BME280;25402;42.004;23.088;2022-08-03T03:53:12;97442.03;;;17.39;38.60
39729;BME280;25402;42.004;23.088;2022-08-03T03:55:39;97425.16;;;17.42;38.54
39729;BME280;25402;42.004;23.088;2022-08-03T03:58:07;97426.63;;;17.56;38.14
39729;BME280;25402;42.004;23.088;2022-08-03T04:00:34;97444.47;;;18.35;38.90
39729;BME280;25402;42.004;23.088;2022-08-03T04:03:00;97426.19;;;18.99;38.48
39729;BME280;25402;42.004;23.088;2022-08-03T04:05:28;97450.13;;;19.72;37.31
39729;BME280;25402;42.004;23.088;2022-08-03T04:08:14;97454.38;;;20.46;35.78
39729;BME280;25402;42.004;23.088;2022-08-03T04:11:05;97454.06;;;21.20;34.32
39729;BME280;25402;42.004;23.088;2022-08-03T04:13:35;97456.91;;;21.79;33.52
39729;BME280;25402;42.004;23.088;2022-08-03T04:16:03;97430.56;;;22.20;32.28
39729;BME280;25402;42.004;23.088;2022-08-03T04:18:33;97451.97;;;22.82;31.62
39729;BME280;25402;42.004;23.088;2022-08-03T04:21:03;97448.34;;;23.34;30.60
39729;BME280;25402;42.004;23.088;2022-08-03T04:23:33;97456.25;;;23.87;29.81
39729;BME280;25402;42.004;23.088;2022-08-03T04:26:02;97450.19;;;24.31;28.60
39729;BME280;25402;42.004;23.088;2022-08-03T04:28:30;97463.38;;;24.90;27.52
39729;BME280;25402;42.004;23.088;2022-08-03T04:30:58;97460.25;;;25.32;27.22
39729;BME280;25402;42.004;23.088;2022-08-03T04:33:26;97430.19;;;25.59;26.45
39729;BME280;25402;42.004;23.088;2022-08-03T04:35:57;97458.84;;;26.23;26.14
39729;BME280;25402;42.004;23.088;2022-08-03T04:38:26;97465.56;;;26.80;24.44
39729;BME280;25402;42.004;23.088;2022-08-03T04:40:55;97476.41;;;27.29;23.92
39729;BME280;25402;42.004;23.088;2022-08-03T04:43:22;97478.88;;;27.54;24.15
39729;BME280;25402;42.004;23.088;2022-08-03T04:45:50;97486.28;;;27.83;24.22
39729;BME280;25402;42.004;23.088;2022-08-03T04:48:18;97483.94;;;28.27;23.36
39729;BME280;25402;42.004;23.088;2022-08-03T04:50:46;97484.53;;;28.43;23.32
39729;BME280;25402;42.004;23.088;2022-08-03T04:53:13;97488.00;;;28.67;22.13
39729;BME280;25402;42.004;23.088;2022-08-03T04:55:40;97474.00;;;28.72;22.99
39729;BME280;25402;42.004;23.088;2022-08-03T04:58:06;97447.00;;;28.87;22.79
39729;BME280;25402;42.004;23.088;2022-08-03T05:00:33;97475.41;;;29.30;22.37
39729;BME280;25402;42.004;23.088;2022-08-03T05:02:59;97485.72;;;29.29;22.13
39729;BME280;25402;42.004;23.088;2022-08-03T05:05:26;97474.19;;;29.22;22.25
39729;BME280;25402;42.004;23.088;2022-08-03T05:07:52;97488.91;;;29.50;21.92
39729;BME280;25402;42.004;23.088;2022-08-03T05:10:19;97481.31;;;29.92;21.49
39729;BME280;25402;42.004;23.088;2022-08-03T05:12:47;97470.16;;;30.28;21.05
39729;BME280;25402;42.004;23.088;2022-08-03T05:15:16;97469.38;;;30.50;20.69
39729;BME280;25402;42.004;23.088;2022-08-03T05:17:43;97490.13;;;30.88;20.03
39729;BME280;25402;42.004;23.088;2022-08-03T05:20:10;97485.78;;;31.04;19.74
39729;BME280;25402;42.004;23.088;2022-08-03T05:22:37;97495.59;;;31.24;19.80
39729;BME280;25402;42.004;23.088;2022-08-03T05:25:04;97494.22;;;31.44;19.69
39729;BME280;25402;42.004;23.088;2022-08-03T05:27:30;97490.13;;;31.59;19.56
39729;BME280;25402;42.004;23.088;2022-08-03T05:30:04;97500.13;;;31.42;20.08
39729;BME280;25402;42.004;23.088;2022-08-03T05:32:30;97500.50;;;31.58;19.69
39729;BME280;25402;42.004;23.088;2022-08-03T05:34:57;97497.38;;;31.60;19.71
39729;BME280;25402;42.004;23.088;2022-08-03T05:37:24;97492.44;;;31.65;19.86
39729;BME280;25402;42.004;23.088;2022-08-03T05:39:53;97477.13;;;31.54;19.66
39729;BME280;25402;42.004;23.088;2022-08-03T05:42:19;97499.03;;;31.69;19.51
39729;BME280;25402;42.004;23.088;2022-08-03T05:44:46;97493.13;;;31.71;19.56
39729;BME280;25402;42.004;23.088;2022-08-03T05:47:13;97494.09;;;31.66;19.75
39729;BME280;25402;42.004;23.088;2022-08-03T05:49:40;97500.19;;;31.68;19.71
39729;BME280;25402;42.004;23.088;2022-08-03T05:52:06;97493.44;;;31.69;19.47
39729;BME280;25402;42.004;23.088;2022-08-03T05:54:32;97500.50;;;31.58;19.45
39729;BME280;25402;42.004;23.088;2022-08-03T05:56:59;97476.63;;;31.52;19.42
39729;BME280;25402;42.004;23.088;2022-08-03T05:59:25;97500.53;;;31.75;19.54
39729;BME280;25402;42.004;23.088;2022-08-03T06:01:52;97493.31;;;31.83;19.28
39729;BME280;25402;42.004;23.088;2022-08-03T06:04:19;97501.56;;;31.88;19.67
39729;BME280;25402;42.004;23.088;2022-08-03T06:06:45;97506.97;;;31.85;19.06
39729;BME280;25402;42.004;23.088;2022-08-03T06:09:12;97490.06;;;31.90;19.48
39729;BME280;25402;42.004;23.088;2022-08-03T06:11:39;97482.28;;;31.78;19.40
39729;BME280;25402;42.004;23.088;2022-08-03T06:14:06;97482.09;;;31.74;19.12
39729;BME280;25402;42.004;23.088;2022-08-03T06:16:33;97486.06;;;31.73;19.15
39729;BME280;25402;42.004;23.088;2022-08-03T06:19:00;97461.53;;;31.70;19.09
39729;BME280;25402;42.004;23.088;2022-08-03T06:21:28;97465.78;;;31.68;19.08
39729;BME280;25402;42.004;23.088;2022-08-03T06:23:54;97450.03;;;31.63;18.88
39729;BME280;25402;42.004;23.088;2022-08-03T06:26:23;97483.25;;;31.73;18.85
39729;BME280;25402;42.004;23.088;2022-08-03T06:28:51;97490.56;;;31.92;18.93
39729;BME280;25402;42.004;23.088;2022-08-03T06:31:24;97485.59;;;31.97;18.99
39729;BME280;25402;42.004;23.088;2022-08-03T06:33:52;97492.38;;;32.05;18.20
39729;BME280;25402;42.004;23.088;2022-08-03T06:36:19;97490.06;;;32.07;18.24
39729;BME280;25402;42.004;23.088;2022-08-03T06:38:46;97462.88;;;31.81;18.27
39729;BME280;25402;42.004;23.088;2022-08-03T06:41:13;97493.03;;;32.02;18.60
39729;BME280;25402;42.004;23.088;2022-08-03T06:43:40;97489.56;;;32.05;18.67
39729;BME280;25402;42.004;23.088;2022-08-03T06:46:07;97451.66;;;31.73;18.48
39729;BME280;25402;42.004;23.088;2022-08-03T06:48:35;97484.09;;;31.83;18.51
39729;BME280;25402;42.004;23.088;2022-08-03T06:51:01;97477.88;;;31.86;18.67
39729;BME280;25402;42.004;23.088;2022-08-03T06:53:28;97489.91;;;31.95;18.69
39729;BME280;25402;42.004;23.088;2022-08-03T06:55:55;97485.78;;;32.01;18.61
39729;BME280;25402;42.004;23.088;2022-08-03T06:58:23;97474.50;;;31.66;18.64
39729;BME280;25402;42.004;23.088;2022-08-03T07:00:49;97486.47;;;31.50;18.42
39729;BME280;25402;42.004;23.088;2022-08-03T07:03:16;97479.28;;;31.57;18.71
39729;BME280;25402;42.004;23.088;2022-08-03T07:05:43;97468.56;;;31.42;19.08
39729;BME280;25402;42.004;23.088;2022-08-03T07:08:11;97473.50;;;31.45;18.79
39729;BME280;25402;42.004;23.088;2022-08-03T07:10:38;97450.34;;;31.13;18.97
39729;BME280;25402;42.004;23.088;2022-08-03T07:13:05;97474.41;;;31.32;19.29
39729;BME280;25402;42.004;23.088;2022-08-03T07:15:33;97471.06;;;31.21;18.86
39729;BME280;25402;42.004;23.088;2022-08-03T07:17:59;97455.31;;;31.17;19.04
39729;BME280;25402;42.004;23.088;2022-08-03T07:20:26;97480.28;;;31.22;19.00
39729;BME280;25402;42.004;23.088;2022-08-03T07:22:53;97475.00;;;31.11;18.88
39729;BME280;25402;42.004;23.088;2022-08-03T07:25:20;97480.47;;;30.63;19.31
39729;BME280;25402;42.004;23.088;2022-08-03T07:27:47;97477.00;;;30.44;19.73
39729;BME280;25402;42.004;23.088;2022-08-03T07:30:14;97469.66;;;30.26;19.81
39729;BME280;25402;42.004;23.088;2022-08-03T07:32:41;97474.81;;;30.32;19.91
39729;BME280;25402;42.004;23.088;2022-08-03T07:35:09;97473.41;;;30.21;20.08
39729;BME280;25402;42.004;23.088;2022-08-03T07:37:36;97473.78;;;29.92;20.46
39729;BME280;25402;42.004;23.088;2022-08-03T07:40:04;97469.53;;;29.95;20.81
39729;BME280;25402;42.004;23.088;2022-08-03T07:42:31;97463.84;;;30.00;20.52
39729;BME280;25402;42.004;23.088;2022-08-03T07:44:58;97457.66;;;30.03;20.87
39729;BME280;25402;42.004;23.088;2022-08-03T07:47:29;97456.50;;;30.04;20.82
39729;BME280;25402;42.004;23.088;2022-08-03T07:49:56;97456.31;;;30.00;20.80
39729;BME280;25402;42.004;23.088;2022-08-03T07:52:22;97454.47;;;29.96;20.80
39729;BME280;25402;42.004;23.088;2022-08-03T07:55:08;97437.72;;;29.96;21.07
39729;BME280;25402;42.004;23.088;2022-08-03T07:57:38;97452.91;;;30.03;21.08
39729;BME280;25402;42.004;23.088;2022-08-03T08:00:06;97454.75;;;30.08;20.85
39729;BME280;25402;42.004;23.088;2022-08-03T08:02:34;97451.56;;;30.01;20.60
39729;BME280;25402;42.004;23.088;2022-08-03T08:05:01;97447.69;;;29.88;20.91
39729;BME280;25402;42.004;23.088;2022-08-03T08:07:27;97447.16;;;29.86;20.71
39729;BME280;25402;42.004;23.088;2022-08-03T08:09:54;97395.53;;;29.39;20.78
39729;BME280;25402;42.004;23.088;2022-08-03T08:12:20;97447.72;;;29.74;20.85
39729;BME280;25402;42.004;23.088;2022-08-03T08:14:47;97453.16;;;29.80;20.88
39729;BME280;25402;42.004;23.088;2022-08-03T08:17:13;97444.91;;;29.88;21.03
39729;BME280;25402;42.004;23.088;2022-08-03T08:19:44;97442.63;;;29.90;21.33
39729;BME280;25402;42.004;23.088;2022-08-03T08:22:11;97444.13;;;29.96;21.45
39729;BME280;25402;42.004;23.088;2022-08-03T08:24:38;97427.19;;;29.93;21.31
39729;BME280;25402;42.004;23.088;2022-08-03T08:27:04;97435.88;;;30.05;21.12
39729;BME280;25402;42.004;23.088;2022-08-03T08:29:33;97421.00;;;29.96;21.04
39729;BME280;25402;42.004;23.088;2022-08-03T08:32:00;97429.34;;;30.09;21.17
39729;BME280;25402;42.004;23.088;2022-08-03T08:34:26;97422.19;;;30.17;20.89
39729;BME280;25402;42.004;23.088;2022-08-03T08:36:53;97431.69;;;30.16;21.25
39729;BME280;25402;42.004;23.088;2022-08-03T08:39:20;97429.41;;;30.18;21.13
39729;BME280;25402;42.004;23.088;2022-08-03T08:41:49;97427.13;;;30.20;21.02
39729;BME280;25402;42.004;23.088;2022-08-03T08:44:16;97423.44;;;30.33;21.09
39729;BME280;25402;42.004;23.088;2022-08-03T08:46:43;97405.56;;;30.34;20.58
39729;BME280;25402;42.004;23.088;2022-08-03T08:49:09;97388.19;;;30.37;20.72
39729;BME280;25402;42.004;23.088;2022-08-03T08:51:39;97417.91;;;30.64;20.34
39729;BME280;25402;42.004;23.088;2022-08-03T08:54:07;97406.69;;;30.56;20.37
39729;BME280;25402;42.004;23.088;2022-08-03T08:56:35;97387.38;;;30.37;20.47
39729;BME280;25402;42.004;23.088;2022-08-03T08:59:03;97394.84;;;30.28;20.69
39729;BME280;25402;42.004;23.088;2022-08-03T09:01:29;97399.34;;;30.37;20.40
39729;BME280;25402;42.004;23.088;2022-08-03T09:03:57;97397.81;;;30.54;20.06
39729;BME280;25402;42.004;23.088;2022-08-03T09:06:24;97390.19;;;30.68;19.91
39729;BME280;25402;42.004;23.088;2022-08-03T09:08:56;97389.34;;;30.67;19.83
39729;BME280;25402;42.004;23.088;2022-08-03T09:11:27;97391.84;;;30.77;19.46
39729;BME280;25402;42.004;23.088;2022-08-03T09:13:55;97391.53;;;30.88;19.37
39729;BME280;25402;42.004;23.088;2022-08-03T09:16:22;97389.75;;;30.92;19.13
39729;BME280;25402;42.004;23.088;2022-08-03T09:18:52;97386.88;;;31.05;19.21
39729;BME280;25402;42.004;23.088;2022-08-03T09:21:22;97375.75;;;31.23;19.09
39729;BME280;25402;42.004;23.088;2022-08-03T09:23:50;97389.28;;;31.38;18.75
39729;BME280;25402;42.004;23.088;2022-08-03T09:26:22;97370.06;;;31.45;18.47
39729;BME280;25402;42.004;23.088;2022-08-03T09:28:56;97391.31;;;31.63;18.51
39729;BME280;25402;42.004;23.088;2022-08-03T09:31:31;97389.63;;;31.45;18.44
39729;BME280;25402;42.004;23.088;2022-08-03T09:34:02;97397.88;;;31.67;18.12
39729;BME280;25402;42.004;23.088;2022-08-03T09:36:37;97377.34;;;31.80;18.43
39729;BME280;25402;42.004;23.088;2022-08-03T09:39:05;97375.53;;;32.10;18.40
39729;BME280;25402;42.004;23.088;2022-08-03T09:41:33;97378.78;;;32.21;17.84
39729;BME280;25402;42.004;23.088;2022-08-03T09:44:00;97374.84;;;32.31;17.77
39729;BME280;25402;42.004;23.088;2022-08-03T09:46:27;97367.75;;;32.42;17.46
39729;BME280;25402;42.004;23.088;2022-08-03T09:49:11;97371.66;;;32.58;17.50
39729;BME280;25402;42.004;23.088;2022-08-03T09:51:38;97361.94;;;32.56;16.55
39729;BME280;25402;42.004;23.088;2022-08-03T09:54:05;97343.97;;;32.57;16.20
39729;BME280;25402;42.004;23.088;2022-08-03T09:56:42;97361.66;;;32.87;16.53
39729;BME280;25402;42.004;23.088;2022-08-03T09:59:11;97355.81;;;33.00;16.40
39729;BME280;25402;42.004;23.088;2022-08-03T10:01:38;97347.94;;;33.23;16.49
39729;BME280;25402;42.004;23.088;2022-08-03T10:04:11;97344.91;;;33.37;15.77
39729;BME280;25402;42.004;23.088;2022-08-03T10:06:39;97338.06;;;33.46;15.88
39729;BME280;25402;42.004;23.088;2022-08-03T10:09:07;97353.31;;;33.37;15.80
39729;BME280;25402;42.004;23.088;2022-08-03T10:11:34;97343.53;;;33.43;15.90
39729;BME280;25402;42.004;23.088;2022-08-03T10:14:02;97325.16;;;33.54;15.68
39729;BME280;25402;42.004;23.088;2022-08-03T10:16:33;97322.97;;;33.60;15.30
39729;BME280;25402;42.004;23.088;2022-08-03T10:19:00;97324.75;;;33.64;15.83
39729;BME280;25402;42.004;23.088;2022-08-03T10:21:29;97330.97;;;33.70;15.49
39729;BME280;25402;42.004;23.088;2022-08-03T10:23:57;97321.72;;;33.69;15.96
39729;BME280;25402;42.004;23.088;2022-08-03T10:26:26;97320.78;;;33.65;16.22
39729;BME280;25402;42.004;23.088;2022-08-03T10:28:56;97324.00;;;33.55;16.10
39729;BME280;25402;42.004;23.088;2022-08-03T10:31:25;97293.38;;;33.50;16.31
39729;BME280;25402;42.004;23.088;2022-08-03T10:34:01;97308.25;;;33.83;16.22
39729;BME280;25402;42.004;23.088;2022-08-03T10:36:31;97313.25;;;33.99;15.73
39729;BME280;25402;42.004;23.088;2022-08-03T10:38:59;97298.78;;;34.09;15.66
39729;BME280;25402;42.004;23.088;2022-08-03T10:41:31;97308.22;;;34.37;15.68
39729;BME280;25402;42.004;23.088;2022-08-03T10:44:03;97308.69;;;34.51;15.64
39729;BME280;25402;42.004;23.088;2022-08-03T10:46:31;97305.63;;;34.32;15.88
39729;BME280;25402;42.004;23.088;2022-08-03T10:49:00;97302.19;;;34.27;16.72
39729;BME280;25402;42.004;23.088;2022-08-03T10:51:28;97300.31;;;34.18;16.41
39729;BME280;25402;42.004;23.088;2022-08-03T10:53:57;97287.16;;;34.43;16.82
39729;BME280;25402;42.004;23.088;2022-08-03T10:56:40;97277.34;;;34.62;16.21
39729;BME280;25402;42.004;23.088;2022-08-03T10:59:59;97279.22;;;34.58;16.60
39729;BME280;25402;42.004;23.088;2022-08-03T11:03:07;97277.00;;;34.63;16.00
39729;BME280;25402;42.004;23.088;2022-08-03T11:05:39;97277.16;;;34.79;16.08
39729;BME280;25402;42.004;23.088;2022-08-03T11:08:36;97276.22;;;34.75;15.88
39729;BME280;25402;42.004;23.088;2022-08-03T11:11:24;97271.75;;;34.62;15.87
39729;BME280;25402;42.004;23.088;2022-08-03T11:13:57;97252.66;;;34.92;15.65
39729;BME280;25402;42.004;23.088;2022-08-03T11:16:25;97265.53;;;34.32;16.37
39729;BME280;25402;42.004;23.088;2022-08-03T11:18:57;97274.28;;;33.64;16.89
39729;BME280;25402;42.004;23.088;2022-08-03T11:21:59;97285.88;;;33.12;16.97
39729;BME280;25402;42.004;23.088;2022-08-03T11:24:57;97278.44;;;32.58;17.55
39729;BME280;25402;42.004;23.088;2022-08-03T11:27:25;97275.25;;;32.21;18.15
39729;BME280;25402;42.004;23.088;2022-08-03T11:29:57;97261.16;;;32.00;18.20
39729;BME280;25402;42.004;23.088;2022-08-03T11:32:52;97263.53;;;32.36;17.72
39729;BME280;25402;42.004;23.088;2022-08-03T11:35:21;97259.69;;;32.79;17.91
39729;BME280;25402;42.004;23.088;2022-08-03T11:38:04;97238.16;;;33.00;17.35
39729;BME280;25402;42.004;23.088;2022-08-03T11:40:33;97261.06;;;32.73;17.76
39729;BME280;25402;42.004;23.088;2022-08-03T11:43:01;97255.78;;;32.33;18.04
39729;BME280;25402;42.004;23.088;2022-08-03T11:45:29;97240.91;;;32.50;17.84
39729;BME280;25402;42.004;23.088;2022-08-03T11:47:56;97244.28;;;32.35;17.93
39729;BME280;25402;42.004;23.088;2022-08-03T11:50:24;97235.91;;;32.17;18.01
39729;BME280;25402;42.004;23.088;2022-08-03T11:52:50;97239.94;;;31.99;17.81
39729;BME280;25402;42.004;23.088;2022-08-03T11:55:18;97235.69;;;31.67;18.00
39729;BME280;25402;42.004;23.088;2022-08-03T11:57:46;97238.50;;;31.33;18.42
39729;BME280;25402;42.004;23.088;2022-08-03T12:00:27;97239.16;;;30.95;18.62
39729;BME280;25402;42.004;23.088;2022-08-03T12:02:59;97235.13;;;30.62;18.63
39729;BME280;25402;42.004;23.088;2022-08-03T12:05:40;97239.38;;;30.59;18.64
39729;BME280;25402;42.004;23.088;2022-08-03T12:08:08;97235.94;;;30.54;18.53
39729;BME280;25402;42.004;23.088;2022-08-03T12:10:37;97232.69;;;30.29;18.72
39729;BME280;25402;42.004;23.088;2022-08-03T12:13:04;97237.94;;;30.22;19.13
39729;BME280;25402;42.004;23.088;2022-08-03T12:15:32;97210.31;;;29.59;19.88
39729;BME280;25402;42.004;23.088;2022-08-03T12:18:02;97221.13;;;29.83;20.21
39729;BME280;25402;42.004;23.088;2022-08-03T12:20:31;97217.34;;;29.56;20.71
39729;BME280;25402;42.004;23.088;2022-08-03T12:23:07;97212.44;;;28.81;20.95
39729;BME280;25402;42.004;23.088;2022-08-03T12:25:36;97226.78;;;28.88;21.63
39729;BME280;25402;42.004;23.088;2022-08-03T12:28:08;97214.56;;;28.34;20.41
39729;BME280;25402;42.004;23.088;2022-08-03T12:30:35;97217.63;;;28.60;20.75
39729;BME280;25402;42.004;23.088;2022-08-03T12:33:14;97210.28;;;29.28;21.81
39729;BME280;25402;42.004;23.088;2022-08-03T12:35:41;97216.41;;;30.14;20.57
39729;BME280;25402;42.004;23.088;2022-08-03T12:38:09;97201.63;;;30.53;20.83
39729;BME280;25402;42.004;23.088;2022-08-03T12:40:38;97210.69;;;30.28;21.60
39729;BME280;25402;42.004;23.088;2022-08-03T12:43:11;97225.59;;;30.23;21.91
39729;BME280;25402;42.004;23.088;2022-08-03T12:45:38;97206.25;;;30.18;20.86
39729;BME280;25402;42.004;23.088;2022-08-03T12:48:09;97200.38;;;30.28;21.24
39729;BME280;25402;42.004;23.088;2022-08-03T12:50:37;97203.34;;;29.48;21.55
39729;BME280;25402;42.004;23.088;2022-08-03T12:53:05;97209.97;;;28.93;22.30
39729;BME280;25402;42.004;23.088;2022-08-03T12:55:33;97213.91;;;28.79;22.19
39729;BME280;25402;42.004;23.088;2022-08-03T12:58:00;97213.06;;;28.92;21.96
39729;BME280;25402;42.004;23.088;2022-08-03T13:07:11;97208.25;;;29.95;19.68
39729;BME280;25402;42.004;23.088;2022-08-03T13:09:42;97212.53;;;29.48;20.26
39729;BME280;25402;42.004;23.088;2022-08-03T13:12:11;97208.25;;;29.42;20.28
39729;BME280;25402;42.004;23.088;2022-08-03T13:14:39;97168.69;;;29.93;20.15